createdAt,value
2023-05-14T00:01:08.060Z,102213.22
2023-05-14T00:03:34.648Z,102207.31
2023-05-14T00:06:01.086Z,102215.13
2023-05-14T00:08:27.530Z,102204.91
2023-05-14T00:10:54.056Z,102202.34
2023-05-14T00:13:20.460Z,102201.59
2023-05-14T00:15:46.968Z,102199.84
2023-05-14T00:18:13.367Z,102198.97
2023-05-14T00:20:40.553Z,102188.72
2023-05-14T00:23:06.939Z,102191.34
2023-05-14T00:25:33.310Z,102196.53
2023-05-14T00:27:59.780Z,102187.13
2023-05-14T00:30:26.278Z,102187.19
2023-05-14T00:32:52.847Z,102180.41
2023-05-14T00:35:20.461Z,102182.97
2023-05-14T00:37:47.390Z,102183.00
2023-05-14T00:40:14.298Z,102175.28
2023-05-14T00:42:40.899Z,102177.91
2023-05-14T00:45:07.761Z,102171.13
2023-05-14T00:47:34.845Z,102173.78
2023-05-14T00:50:02.566Z,102166.13
2023-05-14T00:52:29.094Z,102167.06
2023-05-14T00:54:56.761Z,102159.34
2023-05-14T00:57:23.170Z,102162.81
2023-05-14T00:59:49.746Z,102148.28
2023-05-14T01:02:16.165Z,102152.63
2023-05-14T01:04:42.696Z,102150.91
2023-05-14T01:07:13.235Z,102153.56
2023-05-14T01:09:50.026Z,102160.47
2023-05-14T01:12:37.255Z,102158.84
2023-05-14T01:15:12.609Z,102150.34
2023-05-14T01:17:46.102Z,102152.97
2023-05-14T01:20:12.767Z,102155.59
2023-05-14T01:22:39.241Z,102151.31
2023-05-14T01:25:06.594Z,102153.94
2023-05-14T01:27:49.827Z,102144.56
2023-05-14T01:30:37.513Z,102148.88
2023-05-14T01:33:10.326Z,102157.44
2023-05-14T01:35:37.301Z,102158.31
2023-05-14T01:38:06.762Z,102158.41
2023-05-14T01:40:34.621Z,102155.84
2023-05-14T01:43:02.441Z,102157.66
2023-05-14T01:45:30.941Z,102156.78
2023-05-14T01:47:58.006Z,102139.66
2023-05-14T01:50:24.657Z,102143.16
2023-05-14T01:52:53.396Z,102145.81
2023-05-14T01:55:19.857Z,102139.81
2023-05-14T01:57:46.273Z,102144.97
2023-05-14T02:00:13.006Z,102142.47
2023-05-14T02:02:39.492Z,102138.22
2023-05-14T02:05:07.159Z,102131.38
2023-05-14T02:07:33.869Z,102128.81
2023-05-14T02:10:00.330Z,102132.28
2023-05-14T02:12:26.917Z,102125.44
2023-05-14T02:14:53.394Z,102115.19
2023-05-14T02:17:19.936Z,102128.06
2023-05-14T02:19:46.456Z,102123.84
2023-05-14T02:22:13.138Z,102125.59
2023-05-14T02:24:39.632Z,102125.66
2023-05-14T02:27:06.339Z,102124.00
2023-05-14T02:29:32.752Z,102130.00
2023-05-14T02:31:59.202Z,102126.63
2023-05-14T02:34:25.986Z,102120.66
2023-05-14T02:36:52.421Z,102122.41
2023-05-14T02:39:18.840Z,102109.63
2023-05-14T02:41:45.194Z,102110.53
2023-05-14T02:44:11.570Z,102110.53
2023-05-14T02:46:37.973Z,102111.38
2023-05-14T02:49:04.414Z,102110.56
2023-05-14T02:51:30.762Z,102106.31
2023-05-14T02:53:57.132Z,102108.88
2023-05-14T02:56:23.503Z,102108.03
2023-05-14T02:58:49.863Z,102114.03
2023-05-14T03:01:16.567Z,102105.53
2023-05-14T03:03:43.409Z,102105.56
2023-05-14T03:06:10.377Z,102112.41
2023-05-14T03:08:36.836Z,102100.47
2023-05-14T03:11:03.430Z,102104.81
2023-05-14T03:13:29.927Z,102098.84
2023-05-14T03:15:56.899Z,102100.59
2023-05-14T03:18:25.714Z,102095.44
2023-05-14T03:20:52.115Z,102097.22
2023-05-14T03:23:18.533Z,102103.22
2023-05-14T03:25:44.959Z,102098.13
2023-05-14T03:28:11.411Z,102100.69
2023-05-14T03:30:38.061Z,102105.84
2023-05-14T03:33:04.653Z,102094.78
2023-05-14T03:35:31.519Z,102102.47
2023-05-14T03:37:59.229Z,102100.75
2023-05-14T03:40:26.193Z,102102.50
2023-05-14T03:42:52.703Z,102097.34
2023-05-14T03:45:19.277Z,102099.09
2023-05-14T03:47:45.720Z,102106.78
2023-05-14T03:50:12.179Z,102106.81
2023-05-14T03:52:38.604Z,102095.69
2023-05-14T03:55:05.402Z,102088.88
2023-05-14T03:57:31.859Z,102088.91
2023-05-14T03:59:58.452Z,102096.56
2023-05-14T04:02:25.205Z,102094.88
2023-05-14T04:04:51.801Z,102089.75
2023-05-14T04:07:18.523Z,102088.91
2023-05-14T04:09:44.896Z,102083.78
2023-05-14T04:12:11.652Z,102081.22
2023-05-14T04:14:38.052Z,102087.19
2023-05-14T04:17:04.618Z,102083.75
2023-05-14T04:19:31.346Z,102083.75
2023-05-14T04:21:57.754Z,102080.31
2023-05-14T04:24:24.206Z,102078.66
2023-05-14T04:26:50.630Z,102080.28
2023-05-14T04:29:17.066Z,102078.56
2023-05-14T04:31:44.728Z,102080.28
2023-05-14T04:34:11.158Z,102076.84
2023-05-14T04:36:37.557Z,102075.13
2023-05-14T04:39:04.134Z,102076.00
2023-05-14T04:41:30.652Z,102085.38
2023-05-14T04:43:57.141Z,102090.47
2023-05-14T04:46:23.685Z,102081.88
2023-05-14T04:48:51.363Z,102082.72
2023-05-14T04:51:17.760Z,102086.91
2023-05-14T04:53:44.190Z,102078.34
2023-05-14T04:56:10.811Z,102081.72
2023-05-14T04:58:37.204Z,102081.66
2023-05-14T05:01:05.782Z,102084.13
2023-05-14T05:03:32.685Z,102086.63
2023-05-14T05:05:59.168Z,102090.88
2023-05-14T05:08:26.294Z,102087.38
2023-05-14T05:10:52.719Z,102083.84
2023-05-14T05:13:19.227Z,102087.97
2023-05-14T05:15:45.849Z,102090.47
2023-05-14T05:18:12.326Z,102099.81
2023-05-14T05:20:38.776Z,102089.50
2023-05-14T05:23:05.381Z,102088.56
2023-05-14T05:25:32.222Z,102091.03
2023-05-14T05:27:58.560Z,102092.78
2023-05-14T05:30:25.092Z,102099.63
2023-05-14T05:32:51.835Z,102102.13
2023-05-14T05:35:18.523Z,102103.75
2023-05-14T05:37:45.397Z,102096.00
2023-05-14T05:40:13.992Z,102105.31
2023-05-14T05:42:41.074Z,102097.50
2023-05-14T05:45:07.968Z,102090.53
2023-05-14T05:47:34.664Z,102100.72
2023-05-14T05:50:01.090Z,102099.88
2023-05-14T05:52:27.500Z,102110.13
2023-05-14T05:54:53.903Z,102109.25
2023-05-14T05:57:21.775Z,102110.97
2023-05-14T05:59:48.146Z,102099.78
2023-05-14T06:02:14.569Z,102097.97
2023-05-14T06:04:41.082Z,102097.91
2023-05-14T06:07:07.452Z,102097.00
2023-05-14T06:09:33.850Z,102111.47
2023-05-14T06:12:01.409Z,102098.59
2023-05-14T06:14:27.808Z,102103.63
2023-05-14T06:16:54.338Z,102101.81
2023-05-14T06:19:20.821Z,102108.63
2023-05-14T06:21:47.216Z,102108.41
2023-05-14T06:24:13.648Z,102109.88
2023-05-14T06:26:40.252Z,102103.53
2023-05-14T06:29:06.648Z,102116.09
2023-05-14T06:31:33.038Z,102114.16
2023-05-14T06:33:59.421Z,102119.97
2023-05-14T06:36:25.979Z,102110.28
2023-05-14T06:38:52.384Z,102101.28
2023-05-14T06:41:18.755Z,102108.75
2023-05-14T06:43:45.129Z,102094.81
2023-05-14T06:46:11.636Z,102098.72
2023-05-14T06:48:38.105Z,102108.09
2023-05-14T06:51:04.569Z,102102.81
2023-05-14T06:53:31.533Z,102102.56
2023-05-14T06:55:58.003Z,102101.56
2023-05-14T06:58:24.394Z,102094.53
2023-05-14T07:00:50.824Z,102089.88
2023-05-14T07:03:17.240Z,102090.66
2023-05-14T07:05:45.970Z,102081.97
2023-05-14T07:08:12.495Z,102088.06
2023-05-14T07:10:39.213Z,102092.41
2023-05-14T07:13:05.957Z,102086.00
2023-05-14T07:15:32.546Z,102087.38
2023-05-14T07:17:59.032Z,102097.25
2023-05-14T07:20:26.049Z,102097.13
2023-05-14T07:22:52.816Z,102088.78
2023-05-14T07:25:19.289Z,102097.19
2023-05-14T07:27:45.710Z,102095.31
2023-05-14T07:30:12.270Z,102090.97
2023-05-14T07:32:38.720Z,102091.47
2023-05-14T07:35:06.174Z,102091.06
2023-05-14T07:37:32.813Z,102085.47
2023-05-14T07:39:59.278Z,102088.75
2023-05-14T07:42:35.739Z,102091.81
2023-05-14T07:45:03.556Z,102086.59
2023-05-14T07:47:30.064Z,102081.06
2023-05-14T07:49:57.318Z,102085.06
2023-05-14T07:52:24.397Z,102077.78
2023-05-14T07:54:52.061Z,102079.88
2023-05-14T07:57:19.703Z,102073.75
2023-05-14T07:59:46.733Z,102075.00
2023-05-14T08:02:13.995Z,102071.22
2023-05-14T08:04:40.488Z,102080.47
2023-05-14T08:07:08.533Z,102080.19
2023-05-14T08:09:34.970Z,102076.31
2023-05-14T08:12:01.546Z,102071.34
2023-05-14T08:14:28.532Z,102075.50
2023-05-14T08:16:55.047Z,102076.34
2023-05-14T08:19:24.366Z,102073.03
2023-05-14T08:21:51.419Z,102078.91
2023-05-14T08:24:18.980Z,102075.13
2023-05-14T08:26:45.476Z,102081.56
2023-05-14T08:29:12.941Z,102073.56
2023-05-14T08:31:41.204Z,102072.41
2023-05-14T08:34:07.613Z,102078.81
2023-05-14T08:36:34.073Z,102071.63
2023-05-14T08:39:00.425Z,102070.69
2023-05-14T08:41:26.794Z,102071.41
2023-05-14T08:43:59.250Z,102065.00
2023-05-14T08:46:29.738Z,102063.16
2023-05-14T08:49:29.623Z,102066.47
2023-05-14T08:51:56.201Z,102049.84
2023-05-14T08:54:24.683Z,102047.19
2023-05-14T08:56:53.182Z,102059.09
2023-05-14T08:59:20.501Z,102052.72
2023-05-14T09:01:49.255Z,102052.75
2023-05-14T09:04:19.497Z,102046.31
2023-05-14T09:06:49.980Z,102053.50
2023-05-14T09:17:25.364Z,102046.25
2023-05-14T09:19:53.237Z,102038.00
2023-05-14T09:22:20.896Z,102032.81
2023-05-14T09:28:28.458Z,102025.41
2023-05-14T09:30:54.942Z,102033.50
2023-05-14T09:33:28.553Z,102024.03
2023-05-14T09:35:58.793Z,102020.13
2023-05-14T09:38:34.653Z,102024.19
2023-05-14T09:41:01.139Z,102012.94
2023-05-14T09:43:27.636Z,102014.59
2023-05-14T09:45:54.067Z,102011.56
2023-05-14T09:48:23.139Z,102010.97
2023-05-14T09:50:49.832Z,102014.56
2023-05-14T09:53:17.675Z,102015.09
2023-05-14T09:55:45.451Z,102012.38
2023-05-14T09:58:14.248Z,102008.66
2023-05-14T10:00:46.092Z,102013.50
2023-05-14T10:03:15.571Z,102012.06
2023-05-14T10:05:43.200Z,102007.38
2023-05-14T10:08:30.126Z,102005.06
2023-05-14T10:10:59.394Z,102004.88
2023-05-14T10:13:31.502Z,102000.09
2023-05-14T10:16:21.839Z,102005.13
2023-05-14T10:18:52.658Z,102002.38
2023-05-14T10:21:21.803Z,101998.97
2023-05-14T10:23:50.300Z,101996.72
2023-05-14T10:26:17.093Z,101991.50
2023-05-14T10:28:44.188Z,101987.97
2023-05-14T10:31:10.726Z,101989.03
2023-05-14T10:33:50.788Z,101982.09
2023-05-14T10:36:18.532Z,101983.25
2023-05-14T10:38:45.469Z,101984.31
2023-05-14T10:41:15.063Z,101995.13
2023-05-14T10:43:44.452Z,101986.75
2023-05-14T10:46:13.348Z,101977.38
2023-05-14T10:48:42.333Z,101976.63
2023-05-14T10:51:10.709Z,101973.50
2023-05-14T10:53:39.636Z,101972.34
2023-05-14T10:56:11.600Z,101975.03
2023-05-14T10:58:42.133Z,101967.44
2023-05-14T11:01:09.062Z,101959.97
2023-05-14T11:03:41.302Z,101961.94
2023-05-14T11:06:08.839Z,101956.81
2023-05-14T11:08:41.656Z,101957.38
2023-05-14T11:11:09.274Z,101950.81
2023-05-14T11:13:36.029Z,101947.88
2023-05-14T11:16:15.143Z,101945.00
2023-05-14T11:18:48.231Z,101946.50
2023-05-14T11:21:17.574Z,101944.59
2023-05-14T11:23:46.850Z,101944.78
2023-05-14T11:26:13.288Z,101940.25
2023-05-14T11:28:42.402Z,101936.69
2023-05-14T11:31:10.181Z,101939.44
2023-05-14T11:33:36.666Z,101929.38
2023-05-14T11:36:04.274Z,101928.97
2023-05-14T11:38:30.845Z,101930.56
2023-05-14T11:40:59.586Z,101933.88
2023-05-14T11:43:30.273Z,101926.25
2023-05-14T11:45:59.831Z,101920.72
2023-05-14T11:48:26.422Z,101922.38
2023-05-14T11:50:53.078Z,101921.22
2023-05-14T11:53:24.483Z,101917.75
2023-05-14T11:55:51.075Z,101921.44
2023-05-14T11:58:18.879Z,101919.75
2023-05-14T12:00:46.021Z,101925.09
2023-05-14T12:03:12.632Z,101918.22
2023-05-14T12:05:39.522Z,101918.53
2023-05-14T12:08:23.093Z,101910.97
2023-05-14T12:10:49.491Z,101908.66
2023-05-14T12:13:17.545Z,101907.44
2023-05-14T12:15:53.640Z,101902.72
2023-05-14T12:18:24.590Z,101900.75
2023-05-14T12:20:52.122Z,101900.00
2023-05-14T12:23:31.424Z,101900.31
2023-05-14T12:26:10.143Z,101892.88
2023-05-14T12:28:45.728Z,101894.88
2023-05-14T12:31:12.346Z,101897.50
2023-05-14T12:33:38.837Z,101893.94
2023-05-14T12:36:21.208Z,101887.22
2023-05-14T12:38:49.908Z,101885.03
2023-05-14T12:41:20.840Z,101878.34
2023-05-14T12:43:48.760Z,101875.38
2023-05-14T12:46:15.473Z,101876.44
2023-05-14T12:48:41.989Z,101873.84
2023-05-14T12:51:08.519Z,101866.97
2023-05-14T12:53:35.268Z,101869.66
2023-05-14T12:56:01.813Z,101863.69
2023-05-14T12:58:30.545Z,101861.28
2023-05-14T13:00:57.060Z,101861.19
2023-05-14T13:03:23.905Z,101863.00
2023-05-14T13:05:52.302Z,101856.78
2023-05-14T13:08:21.435Z,101860.41
2023-05-14T13:10:48.149Z,101865.06
2023-05-14T13:13:17.365Z,101863.97
2023-05-14T13:15:46.597Z,101865.41
2023-05-14T13:18:13.988Z,101860.38
2023-05-14T13:20:42.980Z,101862.94
2023-05-14T13:23:09.790Z,101854.41
2023-05-14T13:25:36.182Z,101857.13
2023-05-14T13:28:02.823Z,101853.28
2023-05-14T13:30:29.768Z,101847.34
2023-05-14T13:32:56.260Z,101843.72
2023-05-14T13:35:22.885Z,101846.97
2023-05-14T13:37:49.719Z,101841.59
2023-05-14T13:40:16.733Z,101846.91
2023-05-14T13:42:43.283Z,101853.22
2023-05-14T13:45:10.233Z,101845.03
2023-05-14T13:47:36.848Z,101844.66
2023-05-14T13:50:03.457Z,101834.22
2023-05-14T13:52:29.963Z,101832.94
2023-05-14T13:54:56.829Z,101824.16
2023-05-14T13:57:23.336Z,101823.94
2023-05-14T13:59:49.964Z,101823.00
2023-05-14T14:02:16.440Z,101823.94
2023-05-14T14:04:44.890Z,101820.25
2023-05-14T14:07:11.421Z,101818.72
2023-05-14T14:09:38.084Z,101815.72
2023-05-14T14:12:05.110Z,101820.69
2023-05-14T14:14:34.978Z,101811.69
2023-05-14T14:17:01.393Z,101809.66
2023-05-14T14:19:27.882Z,101819.53
2023-05-14T14:21:54.352Z,101808.47
2023-05-14T14:24:20.892Z,101803.81
2023-05-14T14:26:48.868Z,101800.34
2023-05-14T14:29:15.661Z,101802.22
2023-05-14T14:31:43.540Z,101805.94
2023-05-14T14:34:10.109Z,101795.19
2023-05-14T14:36:38.704Z,101796.25
2023-05-14T14:39:05.252Z,101796.97
2023-05-14T14:41:31.676Z,101796.91
2023-05-14T14:43:58.438Z,101794.97
2023-05-14T14:46:25.018Z,101800.34
2023-05-14T14:48:51.743Z,101799.28
2023-05-14T14:51:18.377Z,101794.25
2023-05-14T14:53:44.794Z,101792.81
2023-05-14T14:56:11.193Z,101792.00
2023-05-14T14:58:38.316Z,101797.63
2023-05-14T15:01:04.990Z,101797.56
2023-05-14T15:03:31.731Z,101793.06
2023-05-14T15:05:58.635Z,101792.22
2023-05-14T15:08:29.551Z,101791.16
2023-05-14T15:10:56.821Z,101790.44
2023-05-14T15:13:24.013Z,101792.38
2023-05-14T15:15:53.514Z,101783.19
2023-05-14T15:18:20.596Z,101780.78
2023-05-14T15:20:47.162Z,101785.88
2023-05-14T15:23:16.269Z,101779.81
2023-05-14T15:25:42.779Z,101789.72
2023-05-14T15:28:09.463Z,101775.63
2023-05-14T15:30:36.022Z,101774.06
2023-05-14T15:33:02.726Z,101771.94
2023-05-14T15:35:29.317Z,101777.06
2023-05-14T15:37:59.402Z,101766.94
2023-05-14T15:40:27.404Z,101772.16
2023-05-14T15:42:56.529Z,101762.88
2023-05-14T15:45:23.203Z,101763.41
2023-05-14T15:47:51.907Z,101761.56
2023-05-14T15:50:18.691Z,101762.31
2023-05-14T15:52:45.419Z,101765.16
2023-05-14T15:55:11.910Z,101761.41
2023-05-14T15:57:38.655Z,101754.16
2023-05-14T16:00:10.408Z,101759.13
2023-05-14T16:02:40.136Z,101759.34
2023-05-14T16:05:08.320Z,101755.50
2023-05-14T16:07:35.185Z,101767.13
2023-05-14T16:10:01.640Z,101764.09
2023-05-14T16:12:28.146Z,101770.03
2023-05-14T16:14:54.696Z,101765.31
2023-05-14T16:17:21.371Z,101772.91
2023-05-14T16:19:47.883Z,101776.91
2023-05-14T16:22:14.403Z,101788.50
2023-05-14T16:24:41.437Z,101768.59
2023-05-14T16:27:07.955Z,101778.13
2023-05-14T16:29:34.494Z,101775.38
2023-05-14T16:32:01.063Z,101779.84
2023-05-14T16:34:27.916Z,101775.00
2023-05-14T16:36:54.364Z,101776.50
2023-05-14T16:39:21.143Z,101773.34
2023-05-14T16:41:47.549Z,101770.09
2023-05-14T16:44:13.938Z,101768.91
2023-05-14T16:46:40.650Z,101770.91
2023-05-14T16:49:07.131Z,101773.69
2023-05-14T16:51:33.646Z,101777.91
2023-05-14T16:54:00.300Z,101771.13
2023-05-14T16:56:27.023Z,101776.72
2023-05-14T16:58:53.645Z,101787.50
2023-05-14T17:01:20.144Z,101783.13
2023-05-14T17:03:46.866Z,101787.66
2023-05-14T17:06:13.438Z,101791.81
2023-05-14T17:08:39.972Z,101796.47
2023-05-14T17:11:06.518Z,101790.78
2023-05-14T17:13:33.494Z,101793.19
2023-05-14T17:16:01.190Z,101783.94
2023-05-14T17:18:28.004Z,101788.81
2023-05-14T17:20:56.839Z,101794.72
2023-05-14T17:23:23.421Z,101792.22
2023-05-14T17:25:50.138Z,101799.53
2023-05-14T17:28:16.719Z,101794.22
2023-05-14T17:30:50.665Z,101800.44
2023-05-14T17:33:17.327Z,101800.72
2023-05-14T17:35:45.821Z,101805.81
2023-05-14T17:38:12.430Z,101799.56
2023-05-14T17:40:40.838Z,101801.88
2023-05-14T17:43:08.581Z,101790.47
2023-05-14T17:45:46.457Z,101798.31
2023-05-14T17:48:20.340Z,101791.72
2023-05-14T17:50:46.919Z,101797.91
2023-05-14T17:53:13.605Z,101801.81
2023-05-14T17:55:43.505Z,101808.88
2023-05-14T17:58:15.322Z,101814.78
2023-05-14T18:00:42.342Z,101811.06
2023-05-14T18:03:09.122Z,101819.00
2023-05-14T18:05:36.300Z,101826.22
2023-05-14T18:08:03.254Z,101828.63
2023-05-14T18:10:29.842Z,101815.63
2023-05-14T18:12:56.665Z,101820.56
2023-05-14T18:15:25.544Z,101824.19
2023-05-14T18:17:53.079Z,101818.69
2023-05-14T18:20:19.975Z,101826.91
2023-05-14T18:22:46.483Z,101820.59
2023-05-14T18:25:13.647Z,101827.56
2023-05-14T18:27:44.421Z,101824.81
2023-05-14T18:30:15.009Z,101830.59
2023-05-14T18:32:43.626Z,101834.28
2023-05-14T18:35:17.774Z,101831.22
2023-05-14T18:37:44.346Z,101836.84
2023-05-14T18:40:15.563Z,101838.66
2023-05-14T18:42:43.427Z,101837.31
2023-05-14T18:45:10.473Z,101835.16
2023-05-14T18:47:37.255Z,101842.06
2023-05-14T18:50:04.841Z,101842.94
2023-05-14T18:52:32.317Z,101847.41
2023-05-14T18:54:58.746Z,101851.03
2023-05-14T18:57:27.209Z,101851.13
2023-05-14T18:59:53.645Z,101849.63
2023-05-14T19:02:20.233Z,101852.63
2023-05-14T19:07:16.257Z,101852.72
2023-05-14T19:09:45.667Z,101851.22
2023-05-14T19:12:12.507Z,101850.31
2023-05-14T19:14:38.957Z,101858.16
2023-05-14T19:17:05.774Z,101850.56
2023-05-14T19:19:32.585Z,101845.84
2023-05-14T19:21:59.155Z,101857.53
2023-05-14T19:24:25.840Z,101853.59
2023-05-14T19:26:52.618Z,101854.75
2023-05-14T19:29:19.303Z,101852.50
2023-05-14T19:31:45.959Z,101850.03
2023-05-14T19:34:12.479Z,101856.22
2023-05-14T19:36:38.930Z,101856.41
2023-05-14T19:39:05.992Z,101850.88
2023-05-14T19:41:32.461Z,101850.31
2023-05-14T19:43:58.908Z,101860.75
2023-05-14T19:46:26.031Z,101858.53
2023-05-14T19:48:52.895Z,101861.34
2023-05-14T19:51:19.404Z,101854.66
2023-05-14T19:53:45.882Z,101861.81
2023-05-14T19:56:12.348Z,101853.28
2023-05-14T19:58:38.978Z,101856.91
2023-05-14T20:01:05.537Z,101858.72
2023-05-14T20:03:32.205Z,101855.59
2023-05-14T20:05:58.961Z,101855.69
2023-05-14T20:08:25.491Z,101845.50
2023-05-14T20:10:52.089Z,101857.72
2023-05-14T20:13:18.568Z,101851.72
2023-05-14T20:15:45.252Z,101857.84
2023-05-14T20:18:12.175Z,101859.53
2023-05-14T20:20:39.920Z,101857.94
2023-05-14T20:23:09.001Z,101852.13
2023-05-14T20:25:35.458Z,101853.22
2023-05-14T20:28:02.051Z,101849.88
2023-05-14T20:30:28.531Z,101848.28
2023-05-14T20:32:55.090Z,101850.84
2023-05-14T20:35:21.567Z,101844.06
2023-05-14T20:37:49.571Z,101841.53
2023-05-14T20:40:16.172Z,101843.28
2023-05-14T20:42:42.841Z,101840.81
2023-05-14T20:45:10.406Z,101834.00
2023-05-14T20:47:37.094Z,101839.22
2023-05-14T20:50:04.659Z,101839.28
2023-05-14T20:52:31.149Z,101841.03
2023-05-14T20:55:00.033Z,101839.34
2023-05-14T20:57:28.352Z,101836.72
2023-05-14T20:59:54.798Z,101828.16
2023-05-14T21:02:21.476Z,101826.47
2023-05-14T21:04:50.746Z,101834.22
2023-05-14T21:07:17.216Z,101823.88
2023-05-14T21:09:46.508Z,101817.84
2023-05-14T21:12:12.978Z,101824.97
2023-05-14T21:14:39.493Z,101814.72
2023-05-14T21:17:05.954Z,101823.34
2023-05-14T21:19:32.524Z,101828.47
2023-05-14T21:21:58.911Z,101832.78
2023-05-14T21:24:25.440Z,101826.97
2023-05-14T21:26:53.577Z,101827.81
2023-05-14T21:29:20.334Z,101828.66
2023-05-14T21:31:47.082Z,101830.44
2023-05-14T21:34:13.543Z,101827.13
2023-05-14T21:36:39.991Z,101833.22
2023-05-14T21:39:06.684Z,101831.72
2023-05-14T21:41:33.219Z,101822.53
2023-05-14T21:43:59.650Z,101817.47
2023-05-14T21:46:26.494Z,101814.19
2023-05-14T21:48:53.258Z,101809.13
2023-05-14T21:51:19.696Z,101805.66
2023-05-14T21:53:48.260Z,101804.78
2023-05-14T21:56:18.276Z,101812.50
2023-05-14T21:58:44.969Z,101809.97
2023-05-14T22:01:11.628Z,101806.50
2023-05-14T22:03:38.301Z,101801.44
2023-05-14T22:06:05.317Z,101808.56
2023-05-14T22:08:32.215Z,101807.78
2023-05-14T22:10:58.716Z,101801.91
2023-05-14T22:13:25.332Z,101798.50
2023-05-14T22:16:01.338Z,101793.41
2023-05-14T22:18:36.543Z,101799.44
2023-05-14T22:21:03.215Z,101796.03
2023-05-14T22:23:29.685Z,101797.69
2023-05-14T22:25:56.184Z,101791.69
2023-05-14T22:28:22.745Z,101793.53
2023-05-14T22:30:49.346Z,101793.66
2023-05-14T22:33:15.745Z,101790.41
2023-05-14T22:35:42.564Z,101786.91
2023-05-14T22:38:09.196Z,101791.28
2023-05-14T22:40:36.474Z,101786.97
2023-05-14T22:43:02.938Z,101784.38
2023-05-14T22:45:29.350Z,101784.63
2023-05-14T22:47:56.134Z,101772.94
2023-05-14T22:50:22.576Z,101766.97
2023-05-14T22:52:48.957Z,101772.22
2023-05-14T22:55:15.421Z,101776.56
2023-05-14T22:57:41.927Z,101765.59
2023-05-14T23:00:09.049Z,101773.44
2023-05-14T23:02:35.699Z,101765.75
2023-05-14T23:05:02.220Z,101762.34
2023-05-14T23:07:28.769Z,101760.69
2023-05-14T23:09:55.267Z,101759.84
2023-05-14T23:12:21.724Z,101759.84
2023-05-14T23:14:48.190Z,101758.09
2023-05-14T23:17:17.464Z,101768.34
2023-05-14T23:19:43.971Z,101766.63
2023-05-14T23:22:10.418Z,101766.63
2023-05-14T23:24:36.891Z,101755.59
2023-05-14T23:27:03.631Z,101765.91
2023-05-14T23:29:30.381Z,101749.56
2023-05-14T23:31:57.060Z,101746.09
2023-05-14T23:34:24.821Z,101743.44
2023-05-14T23:36:51.449Z,101739.16
2023-05-14T23:39:18.164Z,101736.59
2023-05-14T23:41:44.542Z,101733.16
2023-05-14T23:44:11.000Z,101727.97
2023-05-14T23:46:37.510Z,101726.31
2023-05-14T23:49:04.051Z,101721.22
2023-05-14T23:51:30.624Z,101717.91
2023-05-14T23:53:58.677Z,101713.63
2023-05-14T23:56:26.257Z,101711.91
2023-05-14T23:58:53.039Z,101717.91
